EDMO

Oberpfaffenhofen Airport

Germany
METAR EDMO 231720Z 24020KT CAVOK 23/14 Q1008
Observed Flight Rules
Sep-23 @ 17:20 UTC (10 hours ago) Visual Flight Rules
Wind Visibility Clouds
240° at 20 knots 10,000+ meters
  • Clear skies
Temperatures Readings
Current 23°C / 73°F
Dewpoint 14°C / 57°F
Humidity 57%
Altimeter 29.76" Hg
Pressure 1008 hPa
Elevation 600
METAR EDMO 231720Z 24020KT CAVOK 23/14 Q1008
Observed Flight Rules
Sep-23 @ 17:20 UTC
(10 hours ago)
VFR
Wind Visibility
240° at 20 knots 10,000+ meters
Clouds
  • Clear skies
Temperature Dewpoint
23°C / 73°F 14°C / 57°F
Humidity Altimeter Pressure
57% 29.76" Hg 1008 hPa